Time;durP1;ratioP1;P1;durP2;ratioP2;P2;SDS_P1;SDS_P2;PMS_P1;PMS_P2;Temp;Humidity;BMP_temperature;BMP_pressure;BME280_temperature;BME280_humidity;BME280_pressure;Samples;Min_cycle;Max_cycle;Signal;HPM_P1;HPM_P2
2022/09/18 00:00:04;;;;;;;4.45;1.27;;;;;;;21.25;54.29;100597.53;5101124;28;20040;-53
2022/09/18 00:02:30;;;;;;;4.10;1.30;;;;;;;21.18;53.26;100597.06;5092279;28;20130;-54
2022/09/18 00:04:57;;;;;;;5.45;1.25;;;;;;;21.20;54.32;100583.16;5083177;28;20504;-54
2022/09/18 00:07:23;;;;;;;5.35;1.05;;;;;;;21.22;53.34;100584.50;5082581;28;20033;-54
2022/09/18 00:09:49;;;;;;;6.13;1.10;;;;;;;21.11;54.16;100574.78;5070865;28;20029;-54
2022/09/18 00:12:15;;;;;;;3.10;0.93;;;;;;;20.92;54.61;100581.97;5091926;28;20030;-56
2022/09/18 00:14:42;;;;;;;4.88;1.45;;;;;;;20.79;55.08;100569.81;5093150;28;20028;-55
2022/09/18 00:17:08;;;;;;;2.45;1.05;;;;;;;20.85;54.78;100570.59;5095509;28;20110;-55
2022/09/18 00:19:34;;;;;;;4.97;1.30;;;;;;;20.83;55.21;100568.97;5082328;28;20070;-54
2022/09/18 00:22:00;;;;;;;3.15;1.33;;;;;;;20.76;54.41;100570.38;5086545;28;20024;-54
2022/09/18 00:24:26;;;;;;;4.15;1.08;;;;;;;20.74;54.42;100564.41;5092734;28;20021;-55
2022/09/18 00:26:53;;;;;;;4.80;1.52;;;;;;;20.50;55.61;100567.78;5095002;28;20031;-54
2022/09/18 00:29:19;;;;;;;3.15;1.13;;;;;;;20.50;55.14;100558.81;5095099;28;20055;-57
2022/09/18 00:31:45;;;;;;;5.53;1.70;;;;;;;20.42;55.14;100559.34;5094604;28;20054;-53
2022/09/18 00:34:13;;;;;;;3.63;1.33;;;;;;;20.35;55.74;100556.94;5094873;28;20044;-53
2022/09/18 00:36:40;;;;;;;4.30;1.00;;;;;;;20.34;55.92;100549.88;5096975;28;20054;-55
2022/09/18 00:39:07;;;;;;;4.47;1.45;;;;;;;20.22;56.09;100558.34;5094673;28;20020;-54
2022/09/18 00:41:42;;;;;;;5.25;1.40;;;;;;;20.27;55.67;100555.63;5094369;28;20028;-55
2022/09/18 00:44:40;;;;;;;6.35;1.95;;;;;;;19.95;56.41;100542.38;5097825;28;20038;-55
2022/09/18 00:47:09;;;;;;;5.10;1.33;;;;;;;19.78;56.85;100555.47;5094865;28;20039;-55
2022/09/18 00:49:45;;;;;;;5.47;1.70;;;;;;;19.86;57.12;100554.09;5094673;28;20111;-55
2022/09/18 00:52:14;;;;;;;3.83;1.55;;;;;;;19.84;56.96;100550.84;5094604;28;20060;-55
2022/09/18 00:54:52;;;;;;;3.58;1.30;;;;;;;19.69;57.98;100540.81;5094789;28;20521;-55
2022/09/18 00:57:26;;;;;;;5.60;1.70;;;;;;;19.52;58.57;100541.88;5075788;28;20025;-54
2022/09/18 00:59:54;;;;;;;7.70;1.80;;;;;;;19.67;58.86;100551.94;5074226;28;20115;-55
2022/09/18 01:02:20;;;;;;;4.03;1.20;;;;;;;19.59;58.56;100554.38;5073929;28;20037;-54
2022/09/18 01:04:48;;;;;;;3.22;1.42;;;;;;;19.61;58.83;100555.75;5073793;28;20024;-55
2022/09/18 01:07:34;;;;;;;5.13;1.55;;;;;;;19.53;59.25;100556.25;5074068;28;20024;-54
2022/09/18 01:10:01;;;;;;;6.78;1.58;;;;;;;19.30;59.88;100559.53;5074245;28;20032;-55
2022/09/18 01:12:32;;;;;;;5.35;1.15;;;;;;;19.37;59.54;100568.19;5073501;28;20489;-55
2022/09/18 01:15:36;;;;;;;4.10;1.35;;;;;;;19.03;60.60;100563.28;5073942;28;20511;-53
2022/09/18 01:18:33;;;;;;;4.30;1.30;;;;;;;18.86;61.63;100560.00;5073535;28;20049;-54
2022/09/18 01:21:22;;;;;;;7.43;1.95;;;;;;;18.94;61.19;100554.06;5074155;28;20029;-55
2022/09/18 01:23:54;;;;;;;6.60;1.45;;;;;;;18.77;61.97;100558.88;5074355;28;20378;-54
2022/09/18 01:26:40;;;;;;;4.95;1.83;;;;;;;18.62;62.50;100562.34;5074005;28;20107;-54
2022/09/18 01:29:34;;;;;;;3.80;1.50;;;;;;;18.46;62.81;100537.91;5073976;28;20024;-54
2022/09/18 01:32:06;;;;;;;4.93;1.20;;;;;;;18.39;63.37;100520.25;5072957;28;20282;-55
2022/09/18 01:34:47;;;;;;;3.95;1.33;;;;;;;18.35;63.33;100547.06;5073476;28;20098;-54
2022/09/18 01:37:29;;;;;;;4.38;1.40;;;;;;;18.25;63.65;100574.09;5072503;28;20058;-54
2022/09/18 01:40:06;;;;;;;6.22;1.85;;;;;;;18.33;63.63;100570.09;5097156;28;20798;-53
2022/09/18 01:42:35;;;;;;;6.75;1.90;;;;;;;18.13;64.49;100555.34;5103714;28;20036;-53
2022/09/18 01:45:08;;;;;;;4.15;1.90;;;;;;;18.13;64.42;100543.72;5113875;28;20019;-52
2022/09/18 01:47:55;;;;;;;8.00;1.50;;;;;;;18.00;64.93;100546.91;5101076;28;20039;-53
2022/09/18 01:50:22;;;;;;;4.53;2.15;;;;;;;17.88;65.21;100556.03;5093902;28;20164;-52
2022/09/18 01:52:56;;;;;;;6.90;1.60;;;;;;;17.79;65.96;100543.25;5093150;28;20024;-53
2022/09/18 01:55:26;;;;;;;4.05;1.45;;;;;;;17.89;65.50;100549.53;5078653;28;20071;-54
2022/09/18 01:58:02;;;;;;;6.82;1.63;;;;;;;17.77;65.33;100550.81;5072831;28;20074;-54
2022/09/18 02:00:32;;;;;;;4.25;1.40;;;;;;;17.78;65.60;100541.63;5072262;28;20056;-54
2022/09/18 02:03:10;;;;;;;4.80;1.67;;;;;;;17.74;65.66;100525.06;5090364;28;20389;-53
2022/09/18 02:05:41;;;;;;;8.93;2.65;;;;;;;17.74;65.12;100529.69;5093253;28;20047;-52
2022/09/18 02:08:14;;;;;;;6.40;2.00;;;;;;;17.73;65.89;100519.94;5092896;28;20024;-53
2022/09/18 02:10:57;;;;;;;2.83;1.42;;;;;;;17.77;65.48;100529.16;5093269;28;20399;-49
2022/09/18 02:13:29;;;;;;;6.40;1.45;;;;;;;17.57;66.34;100540.63;5091374;28;20048;-55
2022/09/18 02:16:04;;;;;;;3.85;1.80;;;;;;;17.66;66.71;100485.75;5088977;28;20099;-53
2022/09/18 02:18:37;;;;;;;7.30;2.20;;;;;;;17.76;66.89;100503.16;5078182;28;20059;-54
2022/09/18 02:21:08;;;;;;;6.55;1.85;;;;;;;17.67;66.74;100514.44;5092753;28;20200;-53
2022/09/18 02:23:38;;;;;;;5.28;1.73;;;;;;;17.73;67.08;100509.09;5092581;28;20020;-53
2022/09/18 02:26:06;;;;;;;3.42;1.27;;;;;;;17.46;67.55;100511.88;5092555;28;20536;-55
2022/09/18 02:28:34;;;;;;;4.28;1.90;;;;;;;17.59;67.68;100498.69;5092653;28;20047;-57
2022/09/18 02:31:00;;;;;;;4.80;1.48;;;;;;;17.49;68.02;100533.81;5091996;28;20040;-57
2022/09/18 02:33:34;;;;;;;4.10;1.40;;;;;;;17.48;67.85;100505.09;5091993;28;20065;-57
2022/09/18 02:36:07;;;;;;;5.13;1.55;;;;;;;17.47;68.13;100519.72;5092278;28;20024;-57
2022/09/18 02:39:09;;;;;;;9.60;1.75;;;;;;;17.48;68.16;100536.75;5072621;28;20063;-51
2022/09/18 02:42:00;;;;;;;5.60;1.85;;;;;;;17.52;67.98;100510.81;5071729;28;20035;-50
2022/09/18 02:45:23;;;;;;;4.78;1.52;;;;;;;17.38;68.55;100511.28;5071952;28;20033;-48
2022/09/18 02:48:05;;;;;;;3.53;1.40;;;;;;;17.42;68.19;100535.91;5049325;28;20090;-50
2022/09/18 02:51:03;;;;;;;3.63;1.40;;;;;;;17.55;68.28;100531.97;5064645;28;20054;-49
2022/09/18 02:53:39;;;;;;;5.35;1.45;;;;;;;17.31;68.57;100517.97;5071355;28;20419;-53
2022/09/18 02:56:20;;;;;;;2.80;1.42;;;;;;;17.36;68.11;100488.25;5071777;28;20032;-53
2022/09/18 02:58:59;;;;;;;5.53;1.42;;;;;;;17.31;68.39;100505.25;5071567;28;20334;-52
2022/09/18 03:01:26;;;;;;;3.88;1.75;;;;;;;17.30;69.29;100522.56;5095251;28;20081;-52
2022/09/18 03:03:52;;;;;;;3.47;1.58;;;;;;;17.28;69.27;100521.19;5110188;28;20042;-49
2022/09/18 03:06:19;;;;;;;7.50;1.63;;;;;;;17.33;69.30;100508.53;5112211;28;20051;-51
2022/09/18 03:08:45;;;;;;;6.90;1.63;;;;;;;17.32;69.55;100506.91;5112104;28;20020;-46
2022/09/18 03:11:12;;;;;;;4.03;1.65;;;;;;;17.34;69.69;100509.34;5111979;28;20547;-50
2022/09/18 03:13:38;;;;;;;3.40;1.40;;;;;;;17.33;69.25;100523.94;5103841;28;20103;-50
2022/09/18 03:16:04;;;;;;;3.47;1.20;;;;;;;17.32;69.74;100517.72;5091701;28;20391;-48
2022/09/18 03:18:31;;;;;;;3.75;1.70;;;;;;;17.32;70.33;100511.47;5091440;28;20048;-49
2022/09/18 03:20:57;;;;;;;6.03;1.70;;;;;;;17.32;70.01;100506.06;5096885;28;20077;-50
2022/09/18 03:23:23;;;;;;;7.60;2.42;;;;;;;17.37;70.78;100519.63;5111854;28;20042;-48
2022/09/18 03:25:50;;;;;;;5.68;1.33;;;;;;;17.28;71.02;100513.09;5112113;28;20036;-48
2022/09/18 03:28:17;;;;;;;5.45;1.80;;;;;;;17.36;70.73;100508.00;5109435;28;20031;-56
2022/09/18 03:30:44;;;;;;;3.83;1.30;;;;;;;17.41;70.71;100497.22;5112047;28;20090;-56
2022/09/18 03:33:11;;;;;;;2.75;1.35;;;;;;;17.39;70.93;100509.38;5111398;28;20031;-55
2022/09/18 03:35:37;;;;;;;6.55;1.30;;;;;;;17.38;70.62;100511.28;5112127;28;20066;-54
2022/09/18 03:38:03;;;;;;;5.47;1.67;;;;;;;17.48;70.81;100515.94;5112070;28;20067;-49
2022/09/18 03:40:30;;;;;;;7.28;1.55;;;;;;;17.44;70.81;100527.56;5111755;28;20091;-49
2022/09/18 03:42:56;;;;;;;5.00;1.40;;;;;;;17.32;71.47;100506.06;5105722;28;20024;-52
2022/09/18 03:45:22;;;;;;;3.00;1.52;;;;;;;17.33;71.30;100480.66;5111420;28;20459;-51
2022/09/18 03:47:49;;;;;;;7.20;1.55;;;;;;;17.42;71.09;100495.31;5111719;28;20059;-51
2022/09/18 03:50:15;;;;;;;4.70;1.48;;;;;;;17.46;70.61;100496.44;5085427;28;20111;-50
2022/09/18 03:52:42;;;;;;;5.13;1.63;;;;;;;17.45;71.38;100513.75;5093628;28;20024;-51
2022/09/18 03:55:12;;;;;;;4.13;1.80;;;;;;;17.34;71.55;100510.16;5091579;28;20167;-57
2022/09/18 03:57:38;;;;;;;3.83;1.33;;;;;;;17.39;71.28;100502.06;5091688;28;20035;-53
2022/09/18 04:00:05;;;;;;;43.05;18.08;;;;;;;17.30;71.63;100471.16;5094457;28;20151;-53
2022/09/18 04:02:31;;;;;;;12.48;4.20;;;;;;;17.27;71.66;100489.81;5095695;28;20020;-53
2022/09/18 04:04:58;;;;;;;3.03;1.23;;;;;;;17.41;70.99;100497.22;5094260;28;20051;-54
2022/09/18 04:07:24;;;;;;;5.03;2.00;;;;;;;17.37;70.46;100481.75;5095045;28;20208;-52
2022/09/18 04:09:51;;;;;;;3.33;1.30;;;;;;;17.57;69.90;100508.97;5094958;28;20465;-52
2022/09/18 04:12:17;;;;;;;4.68;1.70;;;;;;;17.56;69.47;100501.13;5094853;28;20031;-52
2022/09/18 04:14:43;;;;;;;4.88;1.40;;;;;;;17.41;70.05;100518.03;5095143;28;20024;-53
2022/09/18 04:17:10;;;;;;;5.25;1.50;;;;;;;17.32;70.53;100508.75;5095499;28;20032;-52
2022/09/18 04:19:36;;;;;;;3.85;1.70;;;;;;;17.31;70.63;100478.19;5095034;28;20123;-52
2022/09/18 04:22:03;;;;;;;6.25;1.30;;;;;;;17.46;70.35;100495.63;5094862;28;20028;-53
2022/09/18 04:24:29;;;;;;;2.75;1.50;;;;;;;17.44;70.17;100492.38;5094249;28;20445;-53
2022/09/18 04:26:55;;;;;;;1.95;1.23;;;;;;;17.21;70.63;100493.53;5094648;28;20028;-53
2022/09/18 04:29:21;;;;;;;5.15;1.40;;;;;;;17.32;70.00;100496.09;5094783;28;20020;-52
2022/09/18 04:31:48;;;;;;;4.28;1.40;;;;;;;17.30;69.86;100497.41;5094981;28;20030;-52
2022/09/18 04:34:14;;;;;;;7.05;1.40;;;;;;;17.32;69.29;100474.44;5095022;28;20020;-51
2022/09/18 04:36:41;;;;;;;4.30;1.35;;;;;;;17.45;68.56;100462.34;5094886;28;20051;-54
2022/09/18 04:39:07;;;;;;;4.95;1.35;;;;;;;17.39;68.25;100495.84;5094766;28;20032;-52
2022/09/18 04:41:33;;;;;;;3.63;1.65;;;;;;;17.47;68.30;100498.06;5094336;28;20070;-53
2022/09/18 04:43:59;;;;;;;4.32;1.50;;;;;;;17.48;68.19;100483.47;5094616;28;20053;-52
2022/09/18 04:46:25;;;;;;;3.15;1.10;;;;;;;17.43;68.32;100486.13;5094931;28;20020;-53
2022/09/18 04:48:52;;;;;;;3.25;1.20;;;;;;;17.22;69.17;100479.78;5093182;28;20077;-53
2022/09/18 04:51:19;;;;;;;4.05;1.10;;;;;;;17.31;68.92;100477.38;5081171;28;20077;-53
2022/09/18 04:53:45;;;;;;;4.03;1.40;;;;;;;17.46;68.50;100480.22;5094789;28;20464;-54
2022/09/18 04:56:11;;;;;;;3.70;1.20;;;;;;;17.46;68.16;100480.22;5077291;28;20033;-54
2022/09/18 04:58:37;;;;;;;4.47;1.58;;;;;;;17.50;67.60;100472.41;5104186;28;20118;-53
2022/09/18 05:01:04;;;;;;;3.03;1.40;;;;;;;17.57;67.20;100470.25;5112920;28;20038;-53
2022/09/18 05:03:30;;;;;;;5.22;1.58;;;;;;;17.47;68.00;100454.78;5113427;28;20088;-52
2022/09/18 05:05:56;;;;;;;6.35;1.58;;;;;;;17.52;68.10;100437.75;5094661;28;20046;-54
2022/09/18 05:08:23;;;;;;;2.15;1.17;;;;;;;17.44;68.01;100460.72;5094255;28;20024;-52
2022/09/18 05:10:49;;;;;;;4.88;1.40;;;;;;;17.42;67.74;100457.44;5082448;28;20055;-53
2022/09/18 05:13:15;;;;;;;3.65;1.75;;;;;;;17.36;67.92;100443.06;5089346;28;20424;-52
2022/09/18 05:15:41;;;;;;;4.68;1.20;;;;;;;17.22;68.66;100451.91;5103328;28;20042;-53
2022/09/18 05:18:11;;;;;;;1.92;1.17;;;;;;;17.25;68.51;100446.78;5114272;27;20058;-52
2022/09/18 05:20:37;;;;;;;2.60;1.23;;;;;;;17.24;69.06;100465.97;5094527;28;20072;-53
2022/09/18 05:23:03;;;;;;;3.83;1.15;;;;;;;17.30;69.11;100457.63;5093804;28;20038;-53
2022/09/18 05:25:29;;;;;;;2.45;1.40;;;;;;;17.38;69.72;100450.94;5095423;28;20028;-53
2022/09/18 05:27:58;;;;;;;3.67;1.40;;;;;;;17.40;69.37;100437.97;5094108;28;20036;-53
2022/09/18 05:30:25;;;;;;;4.25;1.60;;;;;;;17.30;69.70;100441.41;5094003;28;20048;-53
2022/09/18 05:32:55;;;;;;;3.13;1.42;;;;;;;17.38;69.43;100438.22;5093394;28;20057;-53
2022/09/18 05:35:26;;;;;;;3.30;1.10;;;;;;;17.30;69.46;100435.19;5093704;28;20024;-53
2022/09/18 05:37:55;;;;;;;3.75;1.33;;;;;;;17.33;68.63;100421.97;5093615;28;20016;-53
2022/09/18 05:40:29;;;;;;;2.33;1.25;;;;;;;17.30;68.44;100427.88;5093116;28;20024;-53
2022/09/18 05:42:55;;;;;;;3.10;1.17;;;;;;;17.19;67.82;100426.19;5093538;28;20051;-53
2022/09/18 05:45:23;;;;;;;3.17;1.15;;;;;;;17.33;67.16;100415.75;5093430;28;20131;-53
2022/09/18 05:47:57;;;;;;;1.40;1.10;;;;;;;17.34;66.82;100414.66;5093388;28;20110;-51
2022/09/18 05:50:25;;;;;;;2.55;1.20;;;;;;;17.42;66.30;100408.75;5081306;28;20028;-52
2022/09/18 05:52:59;;;;;;;3.53;1.27;;;;;;;17.28;66.31;100405.69;5072450;28;20029;-52
2022/09/18 05:55:27;;;;;;;6.75;3.58;;;;;;;17.50;65.90;100399.34;5082538;28;20081;-52
2022/09/18 05:57:55;;;;;;;6.80;3.95;;;;;;;17.54;65.72;100395.00;5093372;28;20439;-53
2022/09/18 06:00:23;;;;;;;7.88;4.63;;;;;;;17.42;66.66;100406.03;5092194;28;20028;-53
2022/09/18 06:03:03;;;;;;;6.30;3.47;;;;;;;17.44;66.38;100400.38;5072757;28;20532;-54
2022/09/18 06:05:33;;;;;;;3.22;1.67;;;;;;;17.47;66.56;100406.06;5093046;28;20036;-53
2022/09/18 06:08:07;;;;;;;7.30;1.98;;;;;;;17.21;67.39;100417.81;5092957;28;20024;-50
2022/09/18 06:10:38;;;;;;;3.20;1.30;;;;;;;17.36;67.00;100413.31;5092894;28;20035;-52
2022/09/18 06:13:11;;;;;;;2.47;1.55;;;;;;;17.24;67.29;100422.69;5091549;28;20032;-51
2022/09/18 06:15:38;;;;;;;5.72;1.17;;;;;;;17.26;67.37;100434.06;5093018;28;20093;-50
2022/09/18 06:18:08;;;;;;;4.35;1.35;;;;;;;17.22;68.87;100425.69;5091329;28;20416;-53
2022/09/18 06:20:34;;;;;;;8.43;1.80;;;;;;;17.18;69.69;100412.94;5093077;28;20048;-53
2022/09/18 06:23:01;;;;;;;6.20;1.50;;;;;;;17.12;70.33;100403.97;5108296;27;20533;-52
2022/09/18 06:25:28;;;;;;;7.28;1.70;;;;;;;17.20;70.57;100406.16;5092831;28;20050;-50
2022/09/18 06:27:57;;;;;;;7.20;1.60;;;;;;;17.13;70.93;100409.09;5092965;28;20107;-53
2022/09/18 06:30:32;;;;;;;4.32;1.30;;;;;;;17.13;70.97;100401.00;5092570;28;20028;-52
2022/09/18 06:33:04;;;;;;;3.47;1.20;;;;;;;17.03;71.42;100389.28;5093026;28;20020;-52
2022/09/18 06:35:32;;;;;;;4.05;1.30;;;;;;;16.98;71.37;100386.53;5088521;28;20027;-52
2022/09/18 06:38:02;;;;;;;5.47;1.50;;;;;;;16.95;71.12;100382.47;5090514;28;20028;-51
2022/09/18 06:40:29;;;;;;;5.72;1.33;;;;;;;16.97;71.02;100383.03;5090897;28;20036;-53
2022/09/18 06:42:56;;;;;;;7.80;1.40;;;;;;;16.91;70.82;100389.47;5093902;28;20048;-52
2022/09/18 06:45:24;;;;;;;5.65;1.88;;;;;;;16.87;70.82;100377.53;5092555;28;20020;-51
2022/09/18 06:47:54;;;;;;;8.00;1.73;;;;;;;16.86;70.24;100373.22;5107894;28;20027;-51
2022/09/18 06:50:21;;;;;;;4.13;1.33;;;;;;;16.85;70.23;100374.28;5093074;27;20028;-51
2022/09/18 06:52:48;;;;;;;5.68;1.60;;;;;;;17.00;69.63;100371.72;5084613;28;20086;-49
2022/09/18 06:55:15;;;;;;;6.18;1.75;;;;;;;17.00;69.20;100373.59;5091674;28;20036;-50
2022/09/18 06:57:42;;;;;;;4.00;1.50;;;;;;;17.02;68.82;100361.44;5092472;28;20036;-52
2022/09/18 07:00:09;;;;;;;3.83;1.58;;;;;;;17.07;68.83;100368.78;5091783;28;20093;-51
2022/09/18 07:02:36;;;;;;;5.03;1.33;;;;;;;17.11;67.68;100368.00;5076798;28;20032;-52
2022/09/18 07:05:03;;;;;;;7.75;2.28;;;;;;;17.26;66.95;100355.63;5089827;28;20036;-52
2022/09/18 07:07:29;;;;;;;3.72;1.50;;;;;;;17.25;67.21;100356.72;5091836;28;20031;-52
2022/09/18 07:09:55;;;;;;;4.45;1.80;;;;;;;17.26;67.08;100350.22;5092041;28;20016;-50
2022/09/18 07:12:21;;;;;;;3.13;1.45;;;;;;;17.34;66.57;100358.66;5089924;28;20353;-47
2022/09/18 07:14:47;;;;;;;8.75;1.83;;;;;;;17.34;65.98;100352.44;5076508;28;20031;-49
2022/09/18 07:17:13;;;;;;;4.53;1.70;;;;;;;17.19;66.56;100349.66;5071222;28;20032;-48
2022/09/18 07:19:40;;;;;;;4.90;1.52;;;;;;;17.24;66.18;100345.06;5093021;28;20082;-47
2022/09/18 07:22:06;;;;;;;3.85;1.83;;;;;;;17.33;66.43;100342.72;5071113;28;20025;-51
2022/09/18 07:24:32;;;;;;;4.72;1.48;;;;;;;17.22;66.53;100338.31;5071922;28;20032;-49
2022/09/18 07:26:58;;;;;;;5.65;1.58;;;;;;;17.30;66.53;100354.03;5071584;28;20024;-49
2022/09/18 07:29:24;;;;;;;5.55;1.67;;;;;;;17.25;66.84;100343.19;5097549;28;20111;-49
2022/09/18 07:31:51;;;;;;;6.22;1.52;;;;;;;17.34;66.95;100344.31;5103513;28;20074;-53
2022/09/18 07:34:17;;;;;;;3.75;1.33;;;;;;;17.31;66.77;100352.94;5092308;28;20024;-52
2022/09/18 07:36:43;;;;;;;5.40;1.63;;;;;;;17.21;67.00;100337.47;5111706;28;20034;-52
2022/09/18 07:39:09;;;;;;;3.05;1.30;;;;;;;17.29;66.93;100339.69;5112275;28;20448;-51
2022/09/18 07:41:36;;;;;;;7.90;1.58;;;;;;;17.47;66.75;100341.13;5111612;28;20028;-51
2022/09/18 07:44:02;;;;;;;6.50;1.70;;;;;;;17.36;67.49;100347.56;5111803;28;20028;-52
2022/09/18 07:46:28;;;;;;;3.10;1.30;;;;;;;17.33;67.88;100340.81;5111613;28;20096;-49
2022/09/18 07:48:55;;;;;;;7.25;1.42;;;;;;;17.39;67.27;100334.34;5094188;28;20033;-51
2022/09/18 07:51:22;;;;;;;5.97;1.60;;;;;;;17.34;67.85;100336.22;5090825;28;20028;-52
2022/09/18 07:53:48;;;;;;;4.70;1.70;;;;;;;17.37;67.63;100324.84;5091674;28;20054;-52
2022/09/18 07:56:14;;;;;;;3.05;1.25;;;;;;;17.44;67.33;100324.63;5091300;28;20020;-49
2022/09/18 07:58:40;;;;;;;5.28;1.52;;;;;;;17.35;67.97;100335.13;5091750;28;20032;-49
2022/09/18 08:01:07;;;;;;;4.32;1.27;;;;;;;17.37;68.37;100330.25;5090974;28;20373;-51
2022/09/18 08:03:33;;;;;;;7.63;1.50;;;;;;;17.31;69.18;100323.19;5107187;28;20537;-52
2022/09/18 08:05:59;;;;;;;4.65;1.48;;;;;;;17.34;69.37;100325.41;5096372;28;20028;-48
2022/09/18 08:08:25;;;;;;;5.00;1.58;;;;;;;17.44;69.56;100320.03;5071845;28;20031;-51
2022/09/18 08:10:54;;;;;;;5.97;1.92;;;;;;;17.42;69.31;100331.09;5069895;28;20036;-51
2022/09/18 08:13:20;;;;;;;4.78;1.85;;;;;;;17.47;69.13;100349.25;5070575;28;20028;-51
2022/09/18 08:15:46;;;;;;;5.22;1.80;;;;;;;17.44;68.94;100343.56;5088630;28;20024;-49
2022/09/18 08:18:12;;;;;;;5.22;1.48;;;;;;;17.43;68.26;100345.44;5086692;28;20448;-50
2022/09/18 08:20:40;;;;;;;12.05;1.95;;;;;;;17.32;68.61;100344.59;5084269;28;20020;-54
2022/09/18 08:23:11;;;;;;;6.22;1.58;;;;;;;17.33;68.60;100335.41;5090783;28;20100;-48
2022/09/18 08:25:38;;;;;;;6.93;1.83;;;;;;;17.33;68.65;100321.88;5090117;28;20033;-48
2022/09/18 08:28:06;;;;;;;5.25;1.17;;;;;;;17.34;69.24;100315.38;5091033;28;20020;-49
2022/09/18 08:30:33;;;;;;;7.05;1.67;;;;;;;17.42;69.48;100311.34;5086259;28;20019;-50
2022/09/18 08:33:09;;;;;;;5.22;1.65;;;;;;;17.47;69.07;100287.03;5072684;28;20109;-52
2022/09/18 08:35:36;;;;;;;7.35;1.90;;;;;;;17.33;69.93;100262.38;5100016;28;20035;-52
2022/09/18 08:38:02;;;;;;;4.13;1.33;;;;;;;17.44;69.71;100254.28;5110933;28;20024;-53
2022/09/18 08:40:42;;;;;;;7.03;1.90;;;;;;;17.54;69.73;100281.34;5111284;28;20054;-54
2022/09/18 08:43:26;;;;;;;3.53;1.65;;;;;;;17.49;69.49;100311.94;5111299;28;20485;-54
2022/09/18 08:46:25;;;;;;;6.17;1.77;;;;;;;17.38;69.28;100305.66;5112964;28;20027;-53
2022/09/18 08:49:11;;;;;;;4.63;1.33;;;;;;;17.41;68.78;100309.72;5105782;28;20032;-53
2022/09/18 08:51:44;;;;;;;3.35;1.38;;;;;;;17.22;68.69;100301.25;5074252;28;20111;-53
2022/09/18 08:54:24;;;;;;;6.93;2.00;;;;;;;17.26;68.66;100312.34;5086598;28;20036;-53
2022/09/18 08:56:51;;;;;;;4.78;1.73;;;;;;;17.28;68.53;100319.16;5094431;28;20445;-53
2022/09/18 08:59:26;;;;;;;3.05;1.23;;;;;;;17.18;69.17;100318.28;5094161;28;20026;-53
2022/09/18 09:02:14;;;;;;;3.08;1.33;;;;;;;17.18;68.82;100296.63;5093806;28;20082;-53
2022/09/18 09:04:40;;;;;;;3.53;1.40;;;;;;;17.24;68.70;100292.88;5094568;28;20028;-52
2022/09/18 09:07:15;;;;;;;4.47;1.35;;;;;;;17.21;68.55;100287.97;5094043;28;20408;-53
2022/09/18 09:09:51;;;;;;;4.72;2.00;;;;;;;17.10;68.47;100277.13;5112546;28;20123;-53
2022/09/18 09:12:48;;;;;;;5.72;1.48;;;;;;;17.13;68.38;100292.81;5102780;28;20054;-53
2022/09/18 09:15:36;;;;;;;3.00;1.23;;;;;;;17.22;68.36;100284.22;5094259;28;20438;-52
2022/09/18 09:18:17;;;;;;;4.18;1.60;;;;;;;17.21;68.19;100283.38;5093825;28;20177;-53
2022/09/18 09:20:54;;;;;;;3.45;1.60;;;;;;;17.11;68.74;100281.47;5093927;28;20028;-52
2022/09/18 09:23:46;;;;;;;5.85;1.40;;;;;;;17.10;68.44;100279.84;5102067;28;20028;-53
2022/09/18 09:26:22;;;;;;;4.18;1.85;;;;;;;17.08;68.60;100283.88;5114743;28;20022;-52
2022/09/18 09:29:22;;;;;;;3.03;1.25;;;;;;;17.17;67.47;100259.84;5114180;28;20078;-52
2022/09/18 09:31:52;;;;;;;3.03;1.50;;;;;;;17.12;67.88;100255.25;5110124;28;20066;-53
2022/09/18 09:34:34;;;;;;;7.38;1.70;;;;;;;17.02;68.26;100272.22;5114042;28;20027;-54
2022/09/18 09:37:05;;;;;;;3.65;1.38;;;;;;;17.05;68.08;100287.94;5112641;28;20092;-53
2022/09/18 09:39:39;;;;;;;2.80;1.15;;;;;;;17.03;68.29;100278.44;5113682;28;20019;-53
2022/09/18 09:42:20;;;;;;;4.25;1.60;;;;;;;17.04;68.78;100286.28;5113544;28;20063;-53
2022/09/18 09:45:10;;;;;;;2.60;1.60;;;;;;;17.08;68.70;100297.38;5092992;28;20024;-53
2022/09/18 09:47:44;;;;;;;3.70;1.33;;;;;;;17.03;68.98;100298.16;5094008;28;20028;-52
2022/09/18 09:50:39;;;;;;;4.38;1.45;;;;;;;17.29;67.96;100295.63;5080859;28;20158;-53
2022/09/18 09:53:10;;;;;;;3.83;1.63;;;;;;;17.17;68.25;100290.41;5073831;28;20101;-52
2022/09/18 09:55:59;;;;;;;5.78;1.38;;;;;;;17.11;68.20;100289.59;5093245;28;20024;-52
2022/09/18 09:58:28;;;;;;;5.90;1.30;;;;;;;16.97;68.56;100288.41;5092601;28;20390;-53
2022/09/18 10:01:09;;;;;;;5.43;1.65;;;;;;;17.05;68.70;100277.13;5092716;28;20040;-53
2022/09/18 10:03:55;;;;;;;5.75;1.75;;;;;;;16.96;69.49;100284.09;5093175;28;20039;-53
2022/09/18 10:07:03;;;;;;;10.75;2.03;;;;;;;17.15;68.28;100276.31;5093318;28;20030;-52
2022/09/18 10:09:34;;;;;;;2.58;1.45;;;;;;;17.13;68.20;100275.78;5091592;28;20036;-53
2022/09/18 10:12:45;;;;;;;4.65;1.65;;;;;;;17.20;67.27;100280.94;5091929;28;20478;-53
2022/09/18 10:15:42;;;;;;;2.47;1.40;;;;;;;17.21;66.97;100264.44;5072261;28;20391;-54
2022/09/18 10:18:33;;;;;;;5.90;1.83;;;;;;;17.34;66.25;100244.25;5072089;28;20560;-51
2022/09/18 10:21:14;;;;;;;5.43;1.23;;;;;;;17.21;66.11;100240.13;5072369;28;20080;-53
2022/09/18 10:23:42;;;;;;;7.25;1.30;;;;;;;17.32;65.38;100247.22;5072424;28;20020;-54
2022/09/18 10:26:21;;;;;;;2.75;1.40;;;;;;;17.26;65.27;100245.53;5072238;28;20038;-53
2022/09/18 10:28:47;;;;;;;3.08;1.13;;;;;;;17.30;65.22;100226.91;5100137;28;20476;-52
2022/09/18 10:31:15;;;;;;;3.67;1.67;;;;;;;17.34;64.66;100219.91;5092427;28;20131;-51
2022/09/18 10:33:50;;;;;;;3.53;1.33;;;;;;;17.19;64.71;100225.25;5092573;28;20119;-53
2022/09/18 10:36:25;;;;;;;2.33;1.20;;;;;;;17.02;64.84;100218.16;5092824;28;20028;-53
2022/09/18 10:38:51;;;;;;;;;;;;;;;17.31;63.91;100218.50;5092947;28;20502;-53
2022/09/18 10:41:20;;;;;;;4.15;1.20;;;;;;;17.21;64.25;100207.66;5092279;28;19912;-53
2022/09/18 10:44:04;;;;;;;2.72;1.00;;;;;;;17.11;64.28;100211.16;5091330;28;20123;-53
2022/09/18 10:46:34;;;;;;;1.58;1.00;;;;;;;17.21;64.00;100204.97;5092595;28;20016;-53
2022/09/18 10:49:19;;;;;;;4.60;1.20;;;;;;;17.00;63.97;100195.97;5088656;28;20039;-54
2022/09/18 10:51:45;;;;;;;2.08;1.30;;;;;;;17.08;64.28;100181.94;5071629;28;20024;-53
2022/09/18 10:54:21;;;;;;;3.17;1.25;;;;;;;17.12;63.63;100169.53;5075021;28;20032;-53
2022/09/18 10:56:48;;;;;;;4.32;1.38;;;;;;;17.05;63.67;100166.25;5092312;28;20024;-53
2022/09/18 10:59:34;;;;;;;6.70;1.42;;;;;;;16.85;64.15;100158.06;5092112;28;20056;-54
2022/09/18 11:02:04;;;;;;;10.45;1.23;;;;;;;16.72;64.65;100142.34;5091137;28;20031;-52
2022/09/18 11:04:32;;;;;;;1.42;1.05;;;;;;;16.92;63.44;100138.88;5091342;28;20032;-53
2022/09/18 11:07:01;;;;;;;2.95;1.40;;;;;;;16.92;63.34;100150.50;5092204;28;20031;-54
2022/09/18 11:09:37;;;;;;;4.03;1.10;;;;;;;16.99;63.93;100124.06;5091750;28;20541;-53
2022/09/18 11:12:04;;;;;;;3.13;1.30;;;;;;;16.88;63.38;100114.28;5091520;28;20026;-53
2022/09/18 11:14:39;;;;;;;4.70;1.13;;;;;;;16.69;63.83;100081.47;5091713;28;20492;-53
2022/09/18 11:17:06;;;;;;;2.10;1.00;;;;;;;16.71;63.38;100062.31;5092076;28;20027;-53
2022/09/18 11:19:37;;;;;;;3.63;1.15;;;;;;;16.84;63.14;100062.66;5070596;28;20032;-54
2022/09/18 11:22:26;;;;;;;4.30;1.10;;;;;;;16.95;62.92;100077.00;5071209;28;20032;-53
2022/09/18 11:25:15;;;;;;;5.10;1.42;;;;;;;16.95;63.03;100093.22;5070848;28;20028;-53
2022/09/18 11:27:50;;;;;;;2.92;1.40;;;;;;;17.00;63.50;100082.44;5070454;28;20431;-53
2022/09/18 11:30:21;;;;;;;4.53;1.30;;;;;;;16.88;64.14;100063.75;5070455;28;20035;-53
2022/09/18 11:32:51;;;;;;;8.10;1.65;;;;;;;16.80;64.83;100039.13;5071298;28;20035;-54
2022/09/18 11:35:21;;;;;;;5.28;1.60;;;;;;;16.89;65.69;100045.63;5071337;28;20070;-53
2022/09/18 11:38:05;;;;;;;5.82;1.35;;;;;;;16.80;66.15;100060.75;5070800;28;20032;-53
2022/09/18 11:40:41;;;;;;;8.23;1.70;;;;;;;16.80;66.53;100053.44;5070912;28;20029;-53
2022/09/18 11:43:29;;;;;;;3.88;1.42;;;;;;;16.58;67.79;100048.19;5071612;28;20029;-52
2022/09/18 11:46:13;;;;;;;3.05;1.50;;;;;;;16.71;66.74;100067.72;5069835;28;20066;-53